createdAt,value
2023-01-19T00:00:54.043Z,77.30
2023-01-19T00:03:21.777Z,77.26
2023-01-19T00:05:49.187Z,77.35
2023-01-19T00:08:16.142Z,77.18
2023-01-19T00:10:47.898Z,77.06
2023-01-19T00:13:15.191Z,77.14
2023-01-19T00:15:42.187Z,77.01
2023-01-19T00:18:10.682Z,76.88
2023-01-19T00:20:38.237Z,76.97
2023-01-19T00:23:05.743Z,77.09
2023-01-19T00:25:32.431Z,76.99
2023-01-19T00:28:01.356Z,77.05
2023-01-19T00:30:28.629Z,77.01
2023-01-19T00:32:56.073Z,77.35
2023-01-19T00:35:22.884Z,77.12
2023-01-19T00:37:49.717Z,77.42
2023-01-19T00:40:17.144Z,77.75
2023-01-19T00:42:48.573Z,77.69
2023-01-19T00:45:19.001Z,77.58
2023-01-19T00:47:47.088Z,77.54
2023-01-19T00:50:19.510Z,77.65
2023-01-19T00:52:46.414Z,77.96
2023-01-19T00:55:14.686Z,77.67
2023-01-19T00:57:42.274Z,78.07
2023-01-19T01:00:12.056Z,77.71
2023-01-19T01:02:40.303Z,77.38
2023-01-19T01:05:08.076Z,77.32
2023-01-19T01:07:40.874Z,77.45
2023-01-19T01:10:09.823Z,77.12
2023-01-19T01:12:37.304Z,76.69
2023-01-19T01:15:10.185Z,76.80
2023-01-19T01:17:37.605Z,76.84
2023-01-19T01:20:05.029Z,76.20
2023-01-19T01:22:31.861Z,76.18
2023-01-19T01:24:58.594Z,75.87
2023-01-19T01:27:25.387Z,76.51
2023-01-19T01:29:52.212Z,76.04
2023-01-19T01:32:19.084Z,75.78
2023-01-19T01:34:45.822Z,76.15
2023-01-19T01:37:12.688Z,75.75
2023-01-19T01:39:39.419Z,75.85
2023-01-19T01:42:17.432Z,76.17
2023-01-19T01:44:50.149Z,76.22
2023-01-19T01:47:26.286Z,76.70
2023-01-19T01:49:58.821Z,76.95
2023-01-19T01:52:27.013Z,77.17
2023-01-19T01:54:53.970Z,77.31
2023-01-19T01:57:20.870Z,78.12
2023-01-19T01:59:48.733Z,78.17
2023-01-19T02:02:40.074Z,78.17
2023-01-19T02:05:12.760Z,78.81
2023-01-19T02:08:04.289Z,78.63
2023-01-19T02:10:50.024Z,79.37
2023-01-19T02:13:20.048Z,79.05
2023-01-19T02:15:51.815Z,78.68
2023-01-19T02:18:22.853Z,79.16
2023-01-19T02:21:20.446Z,79.01
2023-01-19T02:23:52.857Z,79.17
2023-01-19T02:26:21.996Z,79.00
2023-01-19T02:28:52.033Z,79.60
2023-01-19T02:31:19.050Z,79.09
2023-01-19T02:33:45.951Z,79.04
2023-01-19T02:36:15.244Z,78.82
2023-01-19T02:38:43.105Z,78.42
2023-01-19T02:41:12.101Z,79.23
2023-01-19T02:43:39.044Z,79.29
2023-01-19T02:46:05.941Z,78.86
2023-01-19T02:48:32.672Z,78.77
2023-01-19T02:51:04.725Z,78.46
2023-01-19T02:54:06.951Z,78.42
2023-01-19T02:56:45.749Z,77.94
2023-01-19T02:59:24.686Z,78.19
2023-01-19T03:02:04.651Z,78.33
2023-01-19T03:04:49.688Z,78.10
2023-01-19T03:08:04.671Z,78.26
2023-01-19T03:10:52.853Z,78.55
2023-01-19T03:13:25.360Z,78.24
2023-01-19T03:15:56.102Z,79.27
2023-01-19T03:18:24.475Z,79.81
2023-01-19T03:20:53.576Z,78.87
2023-01-19T03:23:21.223Z,78.88
2023-01-19T03:25:49.470Z,79.35
2023-01-19T03:28:18.621Z,79.82
2023-01-19T03:30:49.032Z,79.25
2023-01-19T03:33:29.591Z,78.96
2023-01-19T03:36:07.197Z,79.56
2023-01-19T03:38:37.624Z,79.14
2023-01-19T03:41:11.822Z,78.50
2023-01-19T03:43:40.036Z,79.42
2023-01-19T03:46:07.867Z,79.84
2023-01-19T03:48:34.830Z,80.41
2023-01-19T03:51:06.132Z,81.47
2023-01-19T03:53:33.073Z,81.00
2023-01-19T03:55:59.970Z,79.61
2023-01-19T03:58:26.908Z,79.59
2023-01-19T04:00:53.759Z,79.57
2023-01-19T04:03:20.564Z,80.41
2023-01-19T04:05:47.497Z,80.02
2023-01-19T04:08:14.289Z,80.02
2023-01-19T04:10:41.296Z,80.11
2023-01-19T04:13:08.245Z,80.66
2023-01-19T04:15:35.129Z,80.31
2023-01-19T04:18:02.090Z,79.74
2023-01-19T04:20:29.654Z,79.01
2023-01-19T04:23:01.106Z,78.44
2023-01-19T04:25:29.174Z,77.82
2023-01-19T04:27:58.024Z,77.38
2023-01-19T04:30:25.133Z,76.02
2023-01-19T04:32:52.135Z,76.16
2023-01-19T04:35:20.091Z,75.67
2023-01-19T04:40:13.800Z,75.36
2023-01-19T04:42:45.168Z,74.76
2023-01-19T04:45:13.391Z,74.55
2023-01-19T04:47:40.344Z,75.27
2023-01-19T04:50:08.499Z,74.79
2023-01-19T04:52:35.859Z,75.07
2023-01-19T04:55:06.737Z,74.61
2023-01-19T04:57:33.623Z,74.42
2023-01-19T05:00:01.140Z,74.26
2023-01-19T05:02:27.990Z,74.39
2023-01-19T05:04:54.795Z,74.53
2023-01-19T05:07:21.608Z,74.58
2023-01-19T05:09:48.772Z,74.70
2023-01-19T05:12:15.609Z,74.24
2023-01-19T05:14:43.412Z,74.48
2023-01-19T05:17:10.532Z,74.37
2023-01-19T05:19:37.273Z,74.97
2023-01-19T05:22:04.858Z,74.88
2023-01-19T05:24:31.966Z,74.77
2023-01-19T05:26:59.129Z,75.15
2023-01-19T05:29:25.885Z,74.99
2023-01-19T05:31:52.745Z,75.69
2023-01-19T05:34:19.633Z,75.83
2023-01-19T05:36:46.384Z,76.46
2023-01-19T05:39:13.195Z,75.35
2023-01-19T05:41:42.063Z,75.80
2023-01-19T05:44:10.349Z,75.83
2023-01-19T05:46:37.216Z,76.25
2023-01-19T05:49:05.233Z,75.88
2023-01-19T05:51:35.247Z,76.80
2023-01-19T05:54:02.245Z,76.22
2023-01-19T05:56:29.425Z,76.68
2023-01-19T05:58:56.187Z,76.80
2023-01-19T06:01:23.070Z,76.22
2023-01-19T06:03:50.002Z,77.19
2023-01-19T06:06:17.253Z,76.70
2023-01-19T06:08:44.809Z,76.89
2023-01-19T06:11:12.160Z,77.20
2023-01-19T06:13:42.273Z,77.06
2023-01-19T06:16:09.788Z,76.73
2023-01-19T06:18:36.692Z,76.84
2023-01-19T06:21:05.579Z,77.58
2023-01-19T06:23:33.075Z,78.97
2023-01-19T06:26:00.349Z,77.21
2023-01-19T06:28:27.174Z,76.60
2023-01-19T06:30:55.535Z,77.11
2023-01-19T06:33:23.424Z,77.12
2023-01-19T06:35:50.715Z,77.67
2023-01-19T06:38:18.607Z,77.27
2023-01-19T06:40:46.578Z,75.45
2023-01-19T06:43:13.439Z,73.39
2023-01-19T06:45:40.250Z,72.52
2023-01-19T06:48:07.072Z,72.52
2023-01-19T06:50:33.895Z,72.29
2023-01-19T06:53:01.174Z,71.80
2023-01-19T06:55:28.284Z,71.44
2023-01-19T06:57:59.047Z,71.75
2023-01-19T07:00:25.866Z,71.42
2023-01-19T07:02:52.857Z,71.38
2023-01-19T07:05:22.186Z,71.26
2023-01-19T07:07:53.594Z,71.20
2023-01-19T07:10:21.043Z,71.08
2023-01-19T07:12:48.141Z,71.36
2023-01-19T07:15:16.434Z,71.63
2023-01-19T07:17:44.166Z,71.37
2023-01-19T07:20:14.222Z,71.46
2023-01-19T07:22:42.085Z,72.19
2023-01-19T07:25:09.163Z,71.96
2023-01-19T07:27:36.326Z,71.96
2023-01-19T07:30:04.604Z,72.38
2023-01-19T07:32:31.418Z,72.55
2023-01-19T07:34:58.325Z,72.66
2023-01-19T07:37:25.263Z,72.75
2023-01-19T07:39:52.034Z,72.73
2023-01-19T07:42:18.832Z,72.21
2023-01-19T07:44:46.789Z,72.17
2023-01-19T07:47:13.749Z,71.88
2023-01-19T07:49:40.492Z,71.96
2023-01-19T07:52:07.319Z,72.12
2023-01-19T07:54:34.047Z,71.72
2023-01-19T07:57:01.331Z,72.01
2023-01-19T07:59:30.327Z,72.14
2023-01-19T08:01:59.562Z,71.37
2023-01-19T08:04:27.397Z,71.72
2023-01-19T08:06:55.660Z,71.79
2023-01-19T08:09:22.828Z,71.64
2023-01-19T08:11:49.646Z,71.22
2023-01-19T08:14:16.499Z,71.90
2023-01-19T08:16:43.328Z,71.38
2023-01-19T08:19:10.856Z,71.34
2023-01-19T08:21:39.030Z,71.74
2023-01-19T08:24:06.241Z,71.82
2023-01-19T08:26:35.045Z,71.86
2023-01-19T08:29:04.295Z,71.85
2023-01-19T08:31:31.594Z,71.71
2023-01-19T08:33:58.759Z,71.84
2023-01-19T08:36:25.893Z,71.94
2023-01-19T08:38:52.901Z,71.76
2023-01-19T08:41:19.952Z,72.06
2023-01-19T08:43:46.958Z,71.68
2023-01-19T08:46:17.579Z,71.61
2023-01-19T08:48:48.789Z,72.00
2023-01-19T08:51:15.912Z,71.27
2023-01-19T08:53:43.156Z,71.85
2023-01-19T08:56:14.379Z,71.87
2023-01-19T08:58:45.757Z,71.71
2023-01-19T09:01:22.907Z,71.65
2023-01-19T09:03:49.823Z,71.49
2023-01-19T09:06:19.690Z,71.30
2023-01-19T09:08:47.554Z,71.42
2023-01-19T09:11:15.842Z,71.39
2023-01-19T09:13:43.003Z,71.76
2023-01-19T09:16:11.560Z,71.09
2023-01-19T09:18:38.550Z,71.13
2023-01-19T09:21:05.585Z,70.68
2023-01-19T09:23:32.543Z,70.36
2023-01-19T09:26:01.828Z,70.69
2023-01-19T09:28:29.458Z,70.40
2023-01-19T09:30:56.940Z,70.17
2023-01-19T09:33:24.760Z,70.01
2023-01-19T09:35:52.029Z,71.09
2023-01-19T09:38:19.705Z,71.34
2023-01-19T09:40:52.315Z,72.55
2023-01-19T09:43:21.727Z,73.83
2023-01-19T09:45:58.740Z,73.86
2023-01-19T09:48:44.099Z,75.17
2023-01-19T09:51:33.870Z,74.91
2023-01-19T09:54:12.355Z,75.41
2023-01-19T09:56:39.377Z,76.01
2023-01-19T09:59:25.192Z,77.18
2023-01-19T10:01:52.620Z,78.24
2023-01-19T10:04:34.275Z,79.04
2023-01-19T10:07:28.248Z,80.17
2023-01-19T10:10:33.346Z,80.11
2023-01-19T10:13:10.647Z,81.12
2023-01-19T10:16:01.365Z,81.44
2023-01-19T10:18:43.318Z,81.75
2023-01-19T10:21:40.256Z,82.27
2023-01-19T10:24:25.127Z,82.06
2023-01-19T10:26:54.648Z,81.89
2023-01-19T10:29:37.874Z,81.77
2023-01-19T10:32:25.737Z,81.70
2023-01-19T10:34:53.742Z,81.24
2023-01-19T10:37:33.649Z,80.92
2023-01-19T10:40:09.656Z,80.60
2023-01-19T10:42:38.403Z,80.95
2023-01-19T10:45:19.709Z,80.74
2023-01-19T10:47:47.915Z,80.93
2023-01-19T10:50:41.798Z,80.81
2023-01-19T10:53:20.760Z,81.30
2023-01-19T10:55:47.584Z,81.25
2023-01-19T10:58:29.114Z,81.95
2023-01-19T11:00:56.187Z,81.25
2023-01-19T11:03:30.675Z,81.39
2023-01-19T11:06:15.801Z,81.35
2023-01-19T11:08:43.770Z,80.68
2023-01-19T11:11:12.508Z,80.90
2023-01-19T11:13:40.589Z,80.50
2023-01-19T11:16:27.230Z,80.25
2023-01-19T11:18:57.293Z,80.26
2023-01-19T11:21:27.084Z,80.24
2023-01-19T11:23:56.342Z,80.04
2023-01-19T11:26:41.770Z,79.67
2023-01-19T11:29:21.725Z,79.37
2023-01-19T11:31:49.252Z,79.77
2023-01-19T11:34:24.749Z,79.16
2023-01-19T11:37:18.136Z,79.62
2023-01-19T11:39:58.496Z,79.74
2023-01-19T11:42:26.084Z,79.74
2023-01-19T11:45:01.705Z,79.47
2023-01-19T11:47:54.760Z,79.48
2023-01-19T11:50:29.316Z,79.73
2023-01-19T11:53:33.226Z,79.56
2023-01-19T11:56:14.265Z,79.46
2023-01-19T11:58:46.880Z,79.25
2023-01-19T12:01:22.008Z,79.75
2023-01-19T12:03:57.501Z,79.67
2023-01-19T12:06:54.751Z,80.16
2023-01-19T12:09:28.415Z,80.07
2023-01-19T12:12:05.300Z,80.25
2023-01-19T12:14:40.260Z,79.72
2023-01-19T12:17:14.195Z,80.30
2023-01-19T12:19:54.900Z,80.01
2023-01-19T12:22:22.594Z,80.41
2023-01-19T12:24:52.562Z,80.46
2023-01-19T12:27:33.646Z,80.14
2023-01-19T12:30:00.933Z,79.76
2023-01-19T12:32:36.798Z,79.60
2023-01-19T12:35:03.835Z,79.92
2023-01-19T12:37:40.105Z,78.77
2023-01-19T12:40:20.932Z,78.94
2023-01-19T12:42:56.782Z,77.49
2023-01-19T12:45:25.925Z,76.08
2023-01-19T12:47:53.604Z,74.88
2023-01-19T12:50:23.423Z,73.28
2023-01-19T12:52:57.232Z,73.09
2023-01-19T12:55:33.290Z,72.52
2023-01-19T12:58:21.518Z,72.19
2023-01-19T13:00:50.199Z,71.67
2023-01-19T13:03:19.851Z,71.48
2023-01-19T13:05:54.717Z,70.38
2023-01-19T13:08:25.960Z,69.16
2023-01-19T13:11:12.450Z,69.05
2023-01-19T13:13:45.132Z,69.61
2023-01-19T13:16:27.701Z,68.29
2023-01-19T13:19:08.646Z,68.52
2023-01-19T13:21:39.840Z,68.71
2023-01-19T13:24:22.832Z,68.50
2023-01-19T13:26:49.632Z,71.27
2023-01-19T13:29:40.386Z,72.53
2023-01-19T13:32:16.016Z,74.82
2023-01-19T13:34:45.717Z,75.70
2023-01-19T13:39:49.993Z,77.59
2023-01-19T13:42:29.815Z,76.85
2023-01-19T13:44:59.800Z,74.86
2023-01-19T13:47:39.085Z,76.23
2023-01-19T13:50:06.505Z,74.47
2023-01-19T13:52:33.264Z,71.94
2023-01-19T13:55:03.453Z,72.89
2023-01-19T13:57:41.201Z,69.70
2023-01-19T14:00:16.976Z,69.01
2023-01-19T14:03:01.771Z,68.58
2023-01-19T14:05:30.194Z,68.30
2023-01-19T14:08:13.600Z,67.92
2023-01-19T14:10:47.928Z,67.48
2023-01-19T14:13:18.539Z,68.27
2023-01-19T14:15:47.129Z,67.88
2023-01-19T14:18:16.840Z,66.54
2023-01-19T14:21:04.099Z,68.20
2023-01-19T14:23:42.090Z,65.83
2023-01-19T14:26:43.060Z,69.12
2023-01-19T14:29:09.797Z,68.60
2023-01-19T14:32:04.051Z,69.64
2023-01-19T14:34:42.732Z,68.68
2023-01-19T14:37:21.742Z,72.00
2023-01-19T14:39:55.294Z,73.15
2023-01-19T14:42:31.740Z,74.46
2023-01-19T14:45:01.163Z,74.54
2023-01-19T14:47:32.558Z,75.98
2023-01-19T14:50:04.965Z,75.86
2023-01-19T14:52:35.046Z,76.94
2023-01-19T14:55:03.885Z,78.83
2023-01-19T14:57:30.649Z,79.14
2023-01-19T14:59:57.424Z,80.57
2023-01-19T15:02:24.188Z,80.20
2023-01-19T15:04:55.233Z,81.02
2023-01-19T15:07:24.276Z,81.40
2023-01-19T15:09:51.392Z,81.13
2023-01-19T15:12:18.580Z,81.83
2023-01-19T15:14:45.677Z,81.78
2023-01-19T15:17:16.936Z,81.81
2023-01-19T15:19:43.773Z,82.24
2023-01-19T15:22:14.812Z,81.72
2023-01-19T15:24:41.669Z,82.52
2023-01-19T15:27:11.924Z,81.83
2023-01-19T15:29:42.281Z,82.55
2023-01-19T15:32:13.518Z,82.37
2023-01-19T15:34:40.744Z,82.38
2023-01-19T15:37:07.974Z,82.12
2023-01-19T15:39:35.030Z,81.91
2023-01-19T15:42:01.805Z,81.82
2023-01-19T15:44:28.646Z,82.60
2023-01-19T15:46:55.423Z,82.13
2023-01-19T15:49:23.209Z,81.79
2023-01-19T15:51:49.996Z,81.54
2023-01-19T15:54:17.014Z,81.97
2023-01-19T15:56:43.735Z,82.42
2023-01-19T15:59:10.709Z,81.68
2023-01-19T16:01:37.579Z,82.14
2023-01-19T16:04:07.517Z,81.58
2023-01-19T16:06:34.451Z,81.94
2023-01-19T16:09:01.723Z,82.12
2023-01-19T16:11:32.319Z,82.46
2023-01-19T16:13:59.248Z,82.80
2023-01-19T16:16:28.048Z,82.58
2023-01-19T16:18:55.557Z,82.32
2023-01-19T16:21:22.638Z,82.05
2023-01-19T16:23:49.697Z,82.61
2023-01-19T16:26:34.564Z,82.76
2023-01-19T16:29:08.704Z,82.66
2023-01-19T16:31:39.700Z,83.39
2023-01-19T16:34:06.954Z,83.07
2023-01-19T16:36:36.381Z,83.85
2023-01-19T16:39:06.589Z,83.43
2023-01-19T16:41:34.274Z,83.29
2023-01-19T16:44:01.573Z,83.65
2023-01-19T16:46:30.545Z,83.55
2023-01-19T16:49:02.284Z,83.10
2023-01-19T16:51:29.748Z,82.88
2023-01-19T16:53:56.542Z,83.05
2023-01-19T16:56:23.355Z,83.28
2023-01-19T16:58:57.140Z,84.03
2023-01-19T17:01:25.602Z,84.96
2023-01-19T17:03:52.403Z,85.09
2023-01-19T17:06:22.752Z,84.99
2023-01-19T17:08:50.512Z,84.78
2023-01-19T17:11:22.495Z,85.38
2023-01-19T17:14:17.797Z,84.92
2023-01-19T17:16:44.624Z,85.23
2023-01-19T17:19:15.179Z,85.83
2023-01-19T17:21:44.522Z,85.54
2023-01-19T17:24:11.310Z,85.29
2023-01-19T17:26:38.282Z,85.20
2023-01-19T17:29:06.938Z,85.15
2023-01-19T17:31:34.571Z,84.99
2023-01-19T17:34:01.441Z,85.29
2023-01-19T17:36:29.851Z,84.67
2023-01-19T17:38:58.344Z,83.57
2023-01-19T17:41:27.909Z,83.83
2023-01-19T17:43:55.128Z,84.03
2023-01-19T17:46:24.336Z,84.39
2023-01-19T17:48:54.576Z,84.23
2023-01-19T17:51:24.862Z,84.46
2023-01-19T17:53:52.460Z,84.37
2023-01-19T17:56:26.283Z,84.13
2023-01-19T17:58:53.511Z,84.18
2023-01-19T18:01:25.665Z,84.94
2023-01-19T18:03:53.220Z,85.21
2023-01-19T18:06:20.598Z,84.65
2023-01-19T18:08:49.173Z,85.10
2023-01-19T18:11:18.370Z,84.90
2023-01-19T18:13:46.723Z,84.17
2023-01-19T18:16:15.770Z,84.98
2023-01-19T18:18:44.111Z,85.07
2023-01-19T18:21:13.156Z,85.17
2023-01-19T18:23:40.373Z,84.93
2023-01-19T18:26:10.069Z,85.06
2023-01-19T18:28:37.328Z,85.77
2023-01-19T18:31:22.971Z,86.49
2023-01-19T18:33:49.827Z,86.18
2023-01-19T18:36:17.417Z,86.13
2023-01-19T18:38:44.891Z,86.45
2023-01-19T18:41:17.166Z,86.26
2023-01-19T18:43:44.316Z,86.08
2023-01-19T18:46:11.514Z,86.22
2023-01-19T18:48:39.109Z,85.78
2023-01-19T18:51:11.273Z,86.19
2023-01-19T18:53:38.666Z,85.37
2023-01-19T18:56:06.349Z,85.68
2023-01-19T18:58:34.184Z,86.18
2023-01-19T19:01:01.828Z,85.73
2023-01-19T19:03:29.068Z,86.43
2023-01-19T19:05:56.326Z,85.73
2023-01-19T19:08:23.226Z,85.85
2023-01-19T19:10:49.982Z,85.88
2023-01-19T19:13:17.594Z,86.24
2023-01-19T19:15:44.561Z,85.91
2023-01-19T19:18:13.921Z,86.47
2023-01-19T19:20:43.172Z,85.99
2023-01-19T19:23:10.939Z,86.72
2023-01-19T19:25:38.183Z,85.91
2023-01-19T19:28:05.104Z,86.24
2023-01-19T19:30:34.387Z,86.14
2023-01-19T19:33:01.473Z,85.59
2023-01-19T19:35:30.450Z,86.33
2023-01-19T19:37:58.109Z,85.81
2023-01-19T19:40:26.187Z,85.19
2023-01-19T19:42:53.151Z,85.72
2023-01-19T19:45:20.593Z,86.24
2023-01-19T19:47:47.409Z,86.19
2023-01-19T19:50:14.564Z,85.77
2023-01-19T19:52:42.079Z,85.59
2023-01-19T19:55:09.926Z,85.57
2023-01-19T19:57:36.837Z,86.27
2023-01-19T20:00:05.276Z,86.14
2023-01-19T20:02:36.752Z,85.89
2023-01-19T20:05:04.388Z,85.43
2023-01-19T20:07:31.329Z,85.90
2023-01-19T20:09:58.435Z,85.49
2023-01-19T20:12:25.321Z,84.60
2023-01-19T20:14:52.385Z,84.80
2023-01-19T20:17:20.746Z,85.31
2023-01-19T20:19:49.061Z,84.93
2023-01-19T20:22:16.054Z,84.39
2023-01-19T20:24:42.896Z,84.96
2023-01-19T20:27:09.718Z,84.84
2023-01-19T20:29:36.601Z,85.30
2023-01-19T20:32:03.620Z,85.67
2023-01-19T20:34:33.463Z,85.40
2023-01-19T20:37:01.887Z,85.07
2023-01-19T20:39:30.170Z,85.67
2023-01-19T20:41:57.082Z,85.46
2023-01-19T20:44:25.417Z,85.97
2023-01-19T20:46:53.610Z,86.16
2023-01-19T20:49:20.548Z,86.59
2023-01-19T20:51:47.683Z,86.80
2023-01-19T20:54:16.529Z,86.20
2023-01-19T20:56:43.342Z,86.47
2023-01-19T20:59:10.933Z,86.17
2023-01-19T21:01:38.293Z,86.38
2023-01-19T21:04:05.167Z,85.98
2023-01-19T21:06:31.895Z,86.42
2023-01-19T21:08:58.735Z,85.85
2023-01-19T21:11:25.784Z,86.17
2023-01-19T21:13:56.018Z,85.69
2023-01-19T21:16:28.435Z,85.75
2023-01-19T21:18:55.780Z,86.21
2023-01-19T21:21:30.539Z,85.93
2023-01-19T21:24:02.363Z,85.35
2023-01-19T21:26:33.513Z,86.96
2023-01-19T21:29:01.734Z,86.69
2023-01-19T21:31:29.193Z,87.12
2023-01-19T21:33:57.308Z,87.53
2023-01-19T21:36:24.645Z,87.58
2023-01-19T21:38:52.516Z,86.93
2023-01-19T21:41:19.762Z,87.51
2023-01-19T21:43:46.895Z,87.53
2023-01-19T21:46:15.174Z,87.22
2023-01-19T21:48:42.095Z,87.60
2023-01-19T21:51:09.477Z,87.20
2023-01-19T21:53:36.610Z,87.69
2023-01-19T21:56:06.422Z,87.20
2023-01-19T21:58:33.320Z,87.34
2023-01-19T22:01:06.136Z,87.38
2023-01-19T22:03:33.191Z,87.62
2023-01-19T22:06:07.796Z,87.37
2023-01-19T22:08:35.279Z,87.89
2023-01-19T22:11:06.031Z,88.01
2023-01-19T22:13:33.875Z,87.61
2023-01-19T22:16:05.275Z,87.37
2023-01-19T22:18:32.472Z,87.77
2023-01-19T22:21:13.222Z,87.74
2023-01-19T22:23:40.435Z,87.51
2023-01-19T22:26:08.269Z,87.72
2023-01-19T22:28:35.912Z,87.82
2023-01-19T22:31:15.510Z,88.10
2023-01-19T22:33:42.972Z,87.54
2023-01-19T22:36:10.726Z,87.50
2023-01-19T22:38:39.964Z,87.12
2023-01-19T22:41:28.384Z,86.37
2023-01-19T22:43:58.212Z,86.60
2023-01-19T22:46:27.537Z,86.60
2023-01-19T22:48:55.023Z,86.55
2023-01-19T22:51:22.587Z,87.18
2023-01-19T22:53:49.605Z,87.61
2023-01-19T22:56:18.872Z,87.14
2023-01-19T22:58:46.335Z,86.72
2023-01-19T23:01:15.268Z,87.43
2023-01-19T23:03:42.227Z,87.23
2023-01-19T23:06:14.958Z,87.47
2023-01-19T23:08:42.333Z,87.70
2023-01-19T23:11:12.091Z,87.63
2023-01-19T23:13:38.941Z,87.91
2023-01-19T23:16:06.653Z,87.96
2023-01-19T23:18:33.850Z,87.58
2023-01-19T23:21:10.009Z,87.76
2023-01-19T23:23:37.569Z,88.25
2023-01-19T23:26:07.242Z,87.86
2023-01-19T23:28:34.408Z,87.81
2023-01-19T23:31:01.435Z,88.02
2023-01-19T23:33:28.319Z,88.02
2023-01-19T23:35:55.668Z,87.94
2023-01-19T23:38:22.708Z,87.91
2023-01-19T23:40:49.559Z,87.94
2023-01-19T23:43:16.392Z,88.95
2023-01-19T23:45:43.132Z,88.40
2023-01-19T23:48:10.147Z,88.74
2023-01-19T23:50:40.004Z,88.61
2023-01-19T23:53:07.163Z,88.73
2023-01-19T23:55:33.882Z,88.90
2023-01-19T23:58:00.658Z,89.15
